Time;durP1;ratioP1;P1;durP2;ratioP2;P2;SDS_P1;SDS_P2;PMS_P1;PMS_P2;Temp;Humidity;BMP_temperature;BMP_pressure;BME280_temperature;BME280_humidity;BME280_pressure;Samples;Min_cycle;Max_cycle;Signal;HPM_P1;HPM_P2
2021/09/03 00:01:25;;;;;;;;;;;20.00;99.90;;;19.97;100.00;100945.91;5094716;28;19928;-66
2021/09/03 00:03:53;;;;;;;;;;;20.00;99.90;;;19.94;100.00;100949.34;5094546;28;19925;-66
2021/09/03 00:06:20;;;;;;;;;;;20.00;99.90;;;19.93;100.00;100942.25;5093007;28;19970;-66
2021/09/03 00:08:48;;;;;;;;;;;20.00;99.90;;;19.92;100.00;100937.88;5093565;28;19928;-66
2021/09/03 00:11:16;;;;;;;;;;;20.00;99.90;;;19.93;100.00;100932.06;5094093;28;19931;-65
2021/09/03 00:13:45;;;;;;;;;;;20.00;99.90;;;19.89;100.00;100933.09;5092716;28;19928;-64
2021/09/03 00:16:13;;;;;;;;;;;20.00;99.90;;;19.89;100.00;100925.66;5093335;28;19928;-66
2021/09/03 00:18:41;;;;;;;;;;;20.00;99.90;;;19.90;100.00;100930.03;5091949;28;19924;-64
2021/09/03 00:21:08;;;;;;;;;;;19.90;99.90;;;19.89;100.00;100925.66;5093016;28;19932;-65
2021/09/03 00:23:36;;;;;;;;;;;19.90;99.90;;;19.89;100.00;100927.59;5093369;28;19931;-65
2021/09/03 00:26:04;;;;;;;;;;;19.90;99.90;;;19.83;100.00;100929.81;5092665;28;19924;-69
2021/09/03 00:28:32;;;;;;;;;;;19.90;99.90;;;19.79;100.00;100917.94;5093222;28;19932;-67
2021/09/03 00:31:01;;;;;;;;;;;19.80;99.90;;;19.76;100.00;100918.63;5092881;28;20267;-66
2021/09/03 00:33:28;;;;;;;;;;;19.80;99.90;;;19.73;100.00;100915.81;5093536;28;19927;-67
2021/09/03 00:35:56;;;;;;;;;;;19.80;99.90;;;19.75;100.00;100910.75;5092027;28;19927;-70
2021/09/03 00:38:24;;;;;;;;;;;19.70;99.90;;;19.75;100.00;100913.50;5093234;28;19928;-65
2021/09/03 00:40:52;;;;;;;;;;;19.70;99.90;;;19.75;100.00;100911.56;5093102;28;19935;-66
2021/09/03 00:43:19;;;;;;;;;;;19.70;99.90;;;19.74;100.00;100909.94;5093675;28;19928;-67
2021/09/03 00:45:47;;;;;;;;;;;19.70;99.90;;;19.74;100.00;100900.91;5092959;28;20419;-65
2021/09/03 00:48:16;;;;;;;;;;;19.70;99.90;;;19.73;100.00;100904.81;5092703;28;19924;-68
2021/09/03 00:50:46;;;;;;;;;;;19.70;99.90;;;19.72;100.00;100905.97;5093390;28;19935;-67
2021/09/03 00:53:14;;;;;;;;;;;19.60;99.90;;;19.72;100.00;100900.47;5094056;28;19942;-67
2021/09/03 00:55:41;;;;;;;;;;;19.60;99.90;;;19.70;100.00;100891.81;5092727;28;19932;-66
2021/09/03 00:58:09;;;;;;;;;;;19.60;99.90;;;19.71;100.00;100896.13;5092797;28;19924;-65
2021/09/03 01:00:37;;;;;;;;;;;19.60;99.90;;;19.71;100.00;100896.13;5092897;28;19928;-63
2021/09/03 01:03:05;;;;;;;;;;;19.60;99.90;;;19.70;100.00;100894.56;5092494;28;19931;-64
2021/09/03 01:05:34;;;;;;;;;;;19.60;99.90;;;19.68;100.00;100878.44;5093318;28;19936;-65
2021/09/03 01:08:02;;;;;;;;;;;19.60;99.90;;;19.64;100.00;100878.31;5092182;28;19931;-67
2021/09/03 01:10:29;;;;;;;;;;;;;;;19.61;100.00;100875.47;5093300;28;19928;-64
2021/09/03 01:12:57;;;;;;;;;;;19.60;99.90;;;19.56;100.00;100875.72;5093343;28;19928;-65
2021/09/03 01:15:25;;;;;;;;;;;19.60;99.90;;;19.50;100.00;100877.94;5093279;28;19924;-66
2021/09/03 01:17:53;;;;;;;;;;;19.50;99.90;;;19.44;100.00;100875.78;5091446;28;20317;-66
2021/09/03 01:20:21;;;;;;;;;;;19.50;99.90;;;19.42;100.00;100865.16;5092380;28;19932;-64
2021/09/03 01:22:50;;;;;;;;;;;19.40;99.90;;;19.42;100.00;100865.16;5092643;28;19931;-65
2021/09/03 01:25:19;;;;;;;;;;;19.40;99.90;;;19.41;100.00;100857.28;5093069;28;20333;-67
2021/09/03 01:27:47;;;;;;;;;;;19.40;99.90;;;19.40;100.00;100856.47;5090914;28;19966;-64
2021/09/03 01:30:16;;;;;;;;;;;19.40;99.90;;;19.40;100.00;100861.94;5091914;28;20382;-64
2021/09/03 01:32:44;;;;;;;;;;;;;;;19.39;100.00;100860.38;5092953;28;19931;-66
2021/09/03 01:35:12;;;;;;;;;;;;;;;19.38;100.00;100853.25;5092861;28;19924;-67
2021/09/03 01:37:40;;;;;;;;;;;;;;;19.38;100.00;100852.44;5091192;28;19939;-63
2021/09/03 01:40:10;;;;;;;;;;;;;;;19.36;100.00;100844.56;5092462;28;20330;-64
2021/09/03 01:42:38;;;;;;;;;;;19.20;99.90;;;19.34;100.00;100846.84;5092285;28;19931;-61
2021/09/03 01:45:06;;;;;;;;;;;;;;;19.32;100.00;100843.69;5092656;28;19957;-65
2021/09/03 01:47:33;;;;;;;;;;;19.30;99.90;;;19.31;100.00;100839.31;5090596;28;19982;-64
2021/09/03 01:50:01;;;;;;;;;;;;;;;19.32;100.00;100842.88;5092026;28;19924;-68
2021/09/03 01:52:29;;;;;;;;;;;;;;;19.32;100.00;100849.16;5092788;28;19924;-66
2021/09/03 01:54:57;;;;;;;;;;;19.20;99.90;;;19.33;100.00;100834.28;5092505;28;20336;-63
2021/09/03 01:57:26;;;;;;;;;;;;;;;19.34;100.00;100846.06;5090507;28;19928;-67
2021/09/03 01:59:54;;;;;;;;;;;19.20;99.90;;;19.33;100.00;100842.50;5092604;28;20377;-67
2021/09/03 02:02:22;;;;;;;;;;;;;;;19.35;100.00;100839.44;5091395;28;19928;-65
2021/09/03 02:04:49;;;;;;;;;;;;;;;19.36;100.00;100843.78;5092795;28;19981;-66
2021/09/03 02:07:17;;;;;;;;;;;;;;;19.39;100.00;100838.44;5090911;28;19928;-63
2021/09/03 02:09:45;;;;;;;;;;;19.30;99.90;;;19.40;100.00;100850.97;5092188;28;19924;-67
2021/09/03 02:12:13;;;;;;;;;;;19.20;99.90;;;19.41;100.00;100847.09;5092767;28;19954;-65
2021/09/03 02:14:43;;;;;;;;;;;19.30;99.90;;;19.38;100.00;100836.81;5091985;28;20344;-66
2021/09/03 02:17:11;;;;;;;;;;;19.30;99.90;;;19.35;100.00;100840.25;5090223;28;20500;-66
2021/09/03 02:19:39;;;;;;;;;;;19.30;99.90;;;19.35;100.00;100842.97;5091451;28;19924;-68
2021/09/03 02:22:07;;;;;;;;;;;19.30;99.90;;;19.36;100.00;100844.56;5092049;28;19931;-67
2021/09/03 02:24:34;;;;;;;;;;;19.30;99.90;;;19.35;100.00;100842.19;5092452;28;20255;-65
2021/09/03 02:27:02;;;;;;;;;;;19.30;99.90;;;19.38;100.00;100841.47;5088995;28;20420;-63
2021/09/03 02:29:30;;;;;;;;;;;19.30;99.90;;;19.41;100.00;100843.56;5092176;28;19928;-65
2021/09/03 02:31:59;;;;;;;;;;;19.30;99.90;;;19.39;100.00;100838.44;5086920;28;19977;-65
2021/09/03 02:34:27;;;;;;;;;;;19.30;99.90;;;19.41;100.00;100836.13;5092633;28;19970;-68
2021/09/03 02:36:55;;;;;;;;;;;19.30;99.90;;;19.42;100.00;100845.16;5090677;28;20282;-66
2021/09/03 02:39:22;;;;;;;;;;;19.30;99.90;;;19.39;100.00;100840.34;5091769;28;19928;-67
2021/09/03 02:41:50;;;;;;;;;;;19.30;99.90;;;19.36;100.00;100836.34;5092396;28;19935;-67
2021/09/03 02:44:18;;;;;;;;;;;19.30;99.90;;;19.33;100.00;100833.50;5092562;28;19978;-64
2021/09/03 02:46:46;;;;;;;;;;;19.30;99.90;;;19.33;100.00;100828.81;5090483;28;20286;-68
2021/09/03 02:49:15;;;;;;;;;;;19.30;99.90;;;19.33;100.00;100828.03;5090985;28;19932;-66
2021/09/03 02:51:43;;;;;;;;;;;19.30;99.90;;;19.21;100.00;100826.09;5092191;28;20375;-63
2021/09/03 02:54:10;;;;;;;;;;;19.30;99.90;;;19.07;100.00;100822.94;5092517;28;19924;-64
2021/09/03 02:56:38;;;;;;;;;;;19.20;99.90;;;18.96;100.00;100825.38;5090205;28;19977;-64
2021/09/03 02:59:06;;;;;;;;;;;19.20;99.90;;;18.93;100.00;100830.75;5093523;28;19931;-63
2021/09/03 03:01:33;;;;;;;;;;;19.10;99.90;;;18.89;100.00;100829.84;5094836;28;19932;-64
2021/09/03 03:04:01;;;;;;;;;;;19.00;99.90;;;18.86;100.00;100827.78;5096283;28;19973;-64
2021/09/03 03:06:30;;;;;;;;;;;19.00;99.90;;;18.79;100.00;100825.63;5094341;28;19928;-63
2021/09/03 03:08:58;;;;;;;;;;;19.00;99.90;;;18.75;100.00;100818.44;5095633;28;19924;-64
2021/09/03 03:11:26;;;;;;;;;;;;;;;18.64;100.00;100823.59;5095711;28;20317;-63
2021/09/03 03:14:02;;;;;;;;;;;18.80;99.90;;;18.52;100.00;100816.19;5095697;28;19932;-64
2021/09/03 03:16:30;;;;;;;;;;;18.80;99.90;;;18.40;100.00;100818.88;5093701;28;19975;-63
2021/09/03 03:18:57;;;;;;;;;;;18.70;99.90;;;18.27;100.00;100819.25;5095410;28;20371;-65
2021/09/03 03:21:25;;;;;;;;;;;18.70;99.90;;;18.19;100.00;100828.34;5095700;28;19931;-65
2021/09/03 03:23:54;;;;;;;;;;;18.60;99.90;;;18.13;100.00;100827.75;5095885;28;19924;-66
2021/09/03 03:26:22;;;;;;;;;;;18.50;99.90;;;18.15;100.00;100821.97;5093705;28;19925;-64
2021/09/03 03:28:51;;;;;;;;;;;;;;;18.14;100.00;100826.63;5094351;28;19935;-65
2021/09/03 03:31:18;;;;;;;;;;;18.40;99.90;;;18.13;100.00;100818.75;5094912;28;19928;-62
2021/09/03 03:33:46;;;;;;;;;;;18.30;99.90;;;18.02;100.00;100819.19;5095161;28;19928;-63
2021/09/03 03:36:14;;;;;;;;;;;18.30;99.90;;;17.93;100.00;100821.22;5094090;28;19928;-64
2021/09/03 03:38:41;;;;;;;;;;;18.20;99.90;;;17.88;100.00;100818.69;5094860;28;19936;-64
2021/09/03 03:41:13;;;;;;;;;;;18.00;99.90;;;17.80;100.00;100814.13;5094176;28;20703;-66
2021/09/03 03:43:41;;;;;;;;;;;18.00;99.90;;;17.74;100.00;100818.22;5095168;28;20589;-65
2021/09/03 03:46:08;;;;;;;;;;;17.90;99.90;;;17.68;100.00;100816.84;5093795;28;19924;-64
2021/09/03 03:48:36;;;;;;;;;;;17.80;99.90;;;17.54;100.00;100820.97;5094523;28;19931;-64
2021/09/03 03:51:04;;;;;;;;;;;17.70;99.90;;;17.35;100.00;100816.78;5095262;28;19931;-68
2021/09/03 03:53:32;;;;;;;;;;;;;;;17.27;100.00;100814.91;5094817;28;20371;-65
2021/09/03 03:56:00;;;;;;;;;;;17.50;99.90;;;17.34;100.00;100815.19;5093677;28;19928;-63
2021/09/03 03:58:29;;;;;;;;;;;17.50;99.90;;;17.38;100.00;100813.38;5094285;28;19931;-62
2021/09/03 04:00:57;;;;;;;;;;;17.40;99.90;;;17.40;100.00;100816.56;5094571;28;20393;-66
2021/09/03 04:03:25;;;;;;;;;;;17.40;99.90;;;17.39;100.00;100816.91;5094890;28;19931;-62
2021/09/03 04:05:53;;;;;;;;;;;17.30;99.90;;;17.40;100.00;100818.50;5093697;28;21954;-63
2021/09/03 04:08:20;;;;;;;;;;;17.30;99.90;;;17.38;100.00;100813.38;5093435;28;19924;-64
2021/09/03 04:10:48;;;;;;;;;;;17.20;99.90;;;17.38;100.00;100821.59;5093416;28;19940;-66
2021/09/03 04:13:16;;;;;;;;;;;17.20;99.90;;;17.37;100.00;100819.19;5094834;28;19947;-65
2021/09/03 04:15:45;;;;;;;;;;;17.20;99.90;;;17.38;100.00;100818.06;5093699;28;19935;-67
2021/09/03 04:18:13;;;;;;;;;;;17.20;99.90;;;17.36;100.00;100815.63;5093020;28;19924;-63
2021/09/03 04:20:41;;;;;;;;;;;17.20;99.90;;;17.31;100.00;100812.31;5094494;28;19931;-64
2021/09/03 04:23:09;;;;;;;;;;;;;;;17.22;100.00;100809.66;5094719;28;20398;-63
2021/09/03 04:25:37;;;;;;;;;;;17.20;99.90;;;17.16;100.00;100810.19;5093639;28;19928;-62
2021/09/03 04:28:05;;;;;;;;;;;17.20;99.90;;;17.07;100.00;100804.81;5093255;28;19924;-69
2021/09/03 04:30:33;;;;;;;;;;;17.20;99.90;;;17.03;100.00;100811.25;5094144;28;19931;-66
2021/09/03 04:33:03;;;;;;;;;;;17.10;99.90;;;17.01;100.00;100811.59;5094359;28;19928;-64
2021/09/03 04:35:30;;;;;;;;;;;17.10;99.90;;;17.03;100.00;100808.50;5094180;28;19935;-67
2021/09/03 04:37:58;;;;;;;;;;;17.10;99.90;;;17.03;100.00;100811.25;5092783;28;19935;-68
2021/09/03 04:40:26;;;;;;;;;;;17.10;99.90;;;16.99;100.00;100810.34;5094465;28;19947;-68
2021/09/03 04:42:54;;;;;;;;;;;17.00;99.90;;;17.02;100.00;100810.47;5093598;28;19935;-66
2021/09/03 04:45:21;;;;;;;;;;;17.00;99.90;;;17.06;100.00;100816.84;5093855;28;19928;-65
2021/09/03 04:47:50;;;;;;;;;;;17.00;99.90;;;17.12;100.00;100820.19;5090680;28;19935;-64
2021/09/03 04:50:19;;;;;;;;;;;17.10;99.90;;;17.13;100.00;100814.41;5093937;28;20034;-67
2021/09/03 04:52:47;;;;;;;;;;;17.20;99.90;;;17.09;100.00;100808.00;5092783;28;19924;-63
2021/09/03 04:55:15;;;;;;;;;;;17.20;99.90;;;17.05;100.00;100818.00;5093666;28;19928;-67
2021/09/03 04:57:43;;;;;;;;;;;17.10;99.90;;;17.04;100.00;100823.78;5091753;28;19925;-66
2021/09/03 05:00:12;;;;;;;;;;;17.10;99.90;;;17.00;100.00;100820.13;5093761;28;20263;-64
2021/09/03 05:02:40;;;;;;;;;;;17.00;99.90;;;16.96;100.00;100824.66;5084469;28;19932;-66
2021/09/03 05:05:09;;;;;;;;;;;17.00;99.90;;;16.93;100.00;100821.44;5093604;28;19924;-64
2021/09/03 05:07:38;;;;;;;;;;;17.00;99.90;;;16.93;100.00;100824.16;5090947;28;20011;-65
2021/09/03 05:10:08;;;;;;;;;;;16.90;99.90;;;16.90;100.00;100810.41;5092374;28;19932;-65
2021/09/03 05:12:36;;;;;;;;;;;16.80;99.90;;;16.83;100.00;100816.38;5092298;28;20018;-65
2021/09/03 05:15:06;;;;;;;;;;;16.80;99.90;;;16.83;100.00;100816.38;5093572;28;19924;-66
2021/09/03 05:17:34;;;;;;;;;;;16.80;99.90;;;16.83;100.00;100816.38;5090681;28;19935;-63
2021/09/03 05:20:02;;;;;;;;;;;16.80;99.90;;;16.85;100.00;100810.56;5093304;28;19924;-64
2021/09/03 05:22:32;;;;;;;;;;;16.70;99.90;;;16.84;100.00;100811.72;5091905;28;20309;-63
2021/09/03 05:25:01;;;;;;;;;;;16.70;99.90;;;16.80;100.00;100814.31;5093184;28;19977;-64
2021/09/03 05:27:29;;;;;;;;;;;16.70;99.90;;;16.77;100.00;100817.72;5090983;28;20298;-66
2021/09/03 05:29:56;;;;;;;;;;;16.70;99.90;;;16.66;100.00;100818.41;5092105;28;19928;-66
2021/09/03 05:32:24;;;;;;;;;;;16.60;99.90;;;16.57;100.00;100814.91;5092480;28;19932;-67
2021/09/03 05:34:52;;;;;;;;;;;16.50;99.90;;;16.45;100.00;100814.78;5091382;28;19931;-64
2021/09/03 05:37:20;;;;;;;;;;;16.50;99.90;;;16.35;100.00;100822.22;5090969;28;19928;-64
2021/09/03 05:39:47;;;;;;;;;;;16.40;99.90;;;16.25;100.00;100819.06;5091273;28;19924;-64
2021/09/03 05:42:18;;;;;;;;;;;16.40;99.90;;;16.20;100.00;100816.53;5091478;28;19973;-63
2021/09/03 05:44:46;;;;;;;;;;;16.30;99.90;;;16.18;100.00;100821.50;5092623;28;19924;-65
2021/09/03 05:47:13;;;;;;;;;;;16.30;99.90;;;16.13;100.00;100827.94;5090769;28;19924;-65
2021/09/03 05:49:41;;;;;;;;;;;16.20;99.90;;;16.12;100.00;100828.25;5091129;28;19946;-65
2021/09/03 05:52:09;;;;;;;;;;;;;;;16.08;100.00;100830.06;5092191;28;19924;-62
2021/09/03 05:54:37;;;;;;;;;;;;;;;16.04;100.00;100821.72;5092049;28;19928;-65
2021/09/03 05:57:05;;;;;;;;;;;;;;;16.03;100.00;100830.22;5090690;28;19924;-64
2021/09/03 05:59:35;;;;;;;;;;;;;;;16.05;100.00;100833.44;5090559;28;19985;-65
2021/09/03 06:02:02;;;;;;;;;;;;;;;16.04;100.00;100838.09;5091443;28;20001;-64
2021/09/03 06:04:30;;;;;;;;;;;16.10;99.90;;;16.04;100.00;100834.56;5092230;28;19949;-66
2021/09/03 06:06:58;;;;;;;;;;;16.10;99.90;;;16.06;100.00;100837.75;5090234;28;19921;-64
2021/09/03 06:09:26;;;;;;;;;;;16.10;99.90;;;16.09;100.00;100843.34;5091919;28;19928;-64
2021/09/03 06:11:54;;;;;;;;;;;16.10;99.90;;;16.17;100.00;100845.25;5092380;28;19935;-65
2021/09/03 06:14:22;;;;;;;;;;;16.20;99.90;;;16.29;100.00;100834.44;5092603;28;20040;-65
2021/09/03 06:16:52;;;;;;;;;;;16.20;99.90;;;16.39;100.00;100836.00;5090776;28;19928;-64
2021/09/03 06:19:20;;;;;;;;;;;16.30;99.90;;;16.49;100.00;100835.66;5091385;28;19939;-66
2021/09/03 06:21:48;;;;;;;;;;;16.30;99.90;;;16.59;100.00;100829.88;5092100;28;20440;-65
2021/09/03 06:24:28;;;;;;;;;;;16.40;99.90;;;16.73;100.00;100841.34;5092273;28;19931;-66
2021/09/03 06:26:56;;;;;;;;;;;16.50;99.90;;;17.39;100.00;100839.56;5090597;28;19928;-64
2021/09/03 06:29:40;;;;;;;;;;;;;;;18.31;100.00;100836.56;5091946;28;20367;-62
2021/09/03 06:32:11;;;;;;;;;;;17.30;99.90;;;19.46;100.00;100827.66;5089845;28;19923;-62
2021/09/03 06:34:39;;;;;;;;;;;;;;;20.54;100.00;100830.13;5094015;28;19985;-65
2021/09/03 06:37:08;;;;;;;;;;;19.60;99.90;;;21.56;100.00;100824.13;5092988;28;19951;-63
2021/09/03 06:39:36;;;;;;;;;;;19.90;99.90;;;22.54;100.00;100807.78;5093168;28;20400;-67
2021/09/03 06:42:04;;;;;;;;;;;21.30;99.90;;;23.32;100.00;100806.13;5093341;28;19928;-67
2021/09/03 06:44:32;;;;;;;;;;;21.50;99.90;;;23.41;100.00;100805.88;5095633;28;19924;-64
2021/09/03 06:47:00;;;;;;;;;;;22.70;99.90;;;22.88;100.00;100799.63;5094641;28;19973;-66
2021/09/03 06:49:29;;;;;;;;;;;22.70;99.90;;;22.36;100.00;100809.47;5094320;28;19947;-66
2021/09/03 06:51:57;;;;;;;;;;;22.60;99.90;;;22.04;100.00;100806.16;5095073;28;19931;-65
2021/09/03 06:54:25;;;;;;;;;;;22.40;99.90;;;21.97;100.00;100811.56;5096318;28;19932;-63
2021/09/03 06:56:53;;;;;;;;;;;22.20;99.90;;;22.22;100.00;100823.78;5093486;28;20159;-66
2021/09/03 06:59:20;;;;;;;;;;;22.00;99.90;;;22.34;100.00;100826.34;5093884;28;19932;-66
2021/09/03 07:01:48;;;;;;;;;;;22.00;99.90;;;22.62;100.00;100823.25;5094922;28;20270;-66
2021/09/03 07:04:16;;;;;;;;;;;22.00;99.90;;;23.04;100.00;100833.34;5095664;28;20306;-64
2021/09/03 07:06:45;;;;;;;;;;;22.10;99.90;;;23.70;100.00;100825.13;5094473;28;19924;-64
2021/09/03 07:09:14;;;;;;;;;;;22.30;99.90;;;24.35;100.00;100819.03;5094869;28;19933;-63
2021/09/03 07:11:42;;;;;;;;;;;22.50;99.90;;;24.62;100.00;100814.13;5090467;28;20219;-68
2021/09/03 07:14:09;;;;;;;;;;;22.80;99.90;;;24.85;100.00;100832.09;5094990;28;19934;-68
2021/09/03 07:16:37;;;;;;;;;;;23.20;99.90;;;25.17;100.00;100829.50;5093661;28;19924;-64
2021/09/03 07:19:05;;;;;;;;;;;23.50;99.90;;;25.65;100.00;100838.44;5094134;28;19928;-65
2021/09/03 07:21:33;;;;;;;;;;;23.80;99.90;;;26.02;100.00;100836.13;5094570;28;19924;-65
2021/09/03 07:24:02;;;;;;;;;;;24.10;99.90;;;26.00;100.00;100835.72;5094411;28;19925;-67
2021/09/03 07:26:30;;;;;;;;;;;24.30;99.90;;;25.70;100.00;100846.34;5093718;28;19935;-65
2021/09/03 07:28:58;;;;;;;;;;;24.50;99.90;;;25.46;100.00;100849.78;5094579;28;19930;-64
2021/09/03 07:31:26;;;;;;;;;;;24.60;99.90;;;25.30;100.00;100854.84;5094786;28;19924;-64
2021/09/03 07:33:53;;;;;;;;;;;24.70;99.90;;;25.21;100.00;100859.94;5094398;28;19928;-64
2021/09/03 07:36:21;;;;;;;;;;;24.80;99.90;;;25.15;100.00;100858.72;5093319;28;19924;-65
2021/09/03 07:38:49;;;;;;;;;;;24.90;99.90;;;25.22;100.00;100870.66;5093009;28;19928;-64
2021/09/03 07:41:18;;;;;;;;;;;25.00;99.90;;;25.24;100.00;100865.50;5095227;28;19923;-64
2021/09/03 07:43:46;;;;;;;;;;;25.10;99.90;;;25.38;100.00;100865.56;5094298;28;20294;-65
2021/09/03 07:46:14;;;;;;;;;;;25.10;99.90;;;25.52;100.00;100859.34;5093032;28;19931;-65
2021/09/03 07:48:41;;;;;;;;;;;25.20;99.90;;;25.62;100.00;100850.28;5093465;28;19925;-64
2021/09/03 07:51:09;;;;;;;;;;;25.20;99.90;;;25.60;100.00;100852.63;5094222;28;19935;-67
2021/09/03 07:53:37;;;;;;;;;;;25.30;99.90;;;25.54;100.00;100846.69;5094421;28;19939;-66
2021/09/03 07:56:05;;;;;;;;;;;25.30;99.90;;;25.66;100.00;100845.53;5093472;28;19931;-66
2021/09/03 07:58:35;;;;;;;;;;;25.30;99.90;;;25.81;100.00;100847.16;5093480;28;19931;-66
2021/09/03 08:01:03;;;;;;;;;;;25.40;99.90;;;25.38;100.00;100853.72;5094149;28;19931;-64
2021/09/03 08:03:31;;;;;;;;;;;25.40;99.90;;;25.13;100.00;100856.38;5093643;28;19931;-68
2021/09/03 08:05:59;;;;;;;;;;;25.20;99.90;;;25.14;100.00;100852.41;5093466;28;19932;-65
2021/09/03 08:08:27;;;;;;;;;;;25.10;99.90;;;25.34;100.00;100862.00;5094107;28;20234;-64
2021/09/03 08:10:54;;;;;;;;;;;25.10;99.90;;;25.60;100.00;100858.16;5093370;28;19932;-65
2021/09/03 08:13:22;;;;;;;;;;;25.30;99.90;;;25.92;100.00;100858.28;5093969;28;19924;-66
2021/09/03 08:15:52;;;;;;;;;;;25.50;99.90;;;26.19;100.00;100858.75;5093581;28;19936;-68
2021/09/03 08:18:19;;;;;;;;;;;25.60;99.90;;;26.36;100.00;100849.63;5093427;28;19928;-65
2021/09/03 08:20:47;;;;;;;;;;;25.70;99.90;;;26.40;100.00;100855.97;5093418;28;19928;-63
2021/09/03 08:23:15;;;;;;;;;;;25.70;99.90;;;26.25;100.00;100860.72;5092908;28;19932;-67
2021/09/03 08:25:42;;;;;;;;;;;25.70;99.90;;;25.96;100.00;100859.84;5092845;28;19928;-69
2021/09/03 08:28:11;;;;;;;;;;;;;;;26.01;100.00;100861.47;5092227;28;19928;-66
2021/09/03 08:30:38;;;;;;;;;;;25.70;99.90;;;26.21;100.00;100868.25;5092961;28;20002;-64
2021/09/03 08:33:08;;;;;;;;;;;25.70;99.90;;;26.41;100.00;100872.22;5092673;28;19974;-67
2021/09/03 08:35:35;;;;;;;;;;;25.80;99.90;;;26.57;100.00;100871.81;5093147;28;20318;-65
2021/09/03 08:38:03;;;;;;;;;;;25.80;99.90;;;26.54;100.00;100872.59;5091819;28;19931;-67
2021/09/03 08:40:31;;;;;;;;;;;25.90;99.90;;;26.51;100.00;100871.44;5093575;28;19928;-67
2021/09/03 08:42:59;;;;;;;;;;;25.90;99.90;;;26.49;100.00;100873.00;5093757;28;19942;-66
2021/09/03 08:45:27;;;;;;;;;;;26.00;99.90;;;26.55;100.00;100876.97;5093718;28;19927;-66
2021/09/03 08:47:55;;;;;;;;;;;26.00;99.90;;;26.60;100.00;100885.69;5092380;28;20340;-65
2021/09/03 08:50:24;;;;;;;;;;;26.10;99.90;;;26.70;100.00;100875.78;5092062;28;19924;-65
2021/09/03 08:52:53;;;;;;;;;;;26.10;99.90;;;26.66;100.00;100888.06;5093201;28;19931;-65
2021/09/03 08:55:21;;;;;;;;;;;26.20;99.90;;;26.19;100.00;100883.69;5093235;28;20019;-65
2021/09/03 08:57:49;;;;;;;;;;;26.10;99.90;;;25.68;100.00;100892.25;5090904;28;20128;-64
2021/09/03 09:00:22;;;;;;;;;;;26.00;99.90;;;25.57;100.00;100886.66;5093434;28;20332;-64
2021/09/03 09:03:04;;;;;;;;;;;25.80;99.90;;;25.88;100.00;100888.75;5092560;28;20317;-65
2021/09/03 09:08:21;;;;;;;;;;;25.80;99.90;;;26.27;100.00;100890.81;5302717;22;19982;-66
2021/09/03 09:10:50;;;;;;;;;;;25.80;99.90;;;26.30;100.00;100895.56;5033166;28;19936;-66
2021/09/03 09:13:20;;;;;;;;;;;25.90;99.90;;;26.08;100.00;100897.50;5033336;28;19925;-67
2021/09/03 09:16:02;;;;;;;;;;;25.80;99.90;;;26.19;100.00;100900.31;5044870;28;19932;-68
2021/09/03 09:18:48;;;;;;;;;;;25.80;99.90;;;26.03;100.00;100904.22;5052476;28;19929;-67
2021/09/03 09:21:28;;;;;;;;;;;25.80;99.90;;;25.99;100.00;100897.84;5039260;28;19925;-68
2021/09/03 09:23:59;;;;;;;;;;;25.80;99.90;;;25.98;100.00;100904.59;5033012;28;20364;-66
2021/09/03 09:26:30;;;;;;;;;;;25.80;99.90;;;26.16;100.00;100912.19;5032658;28;19925;-63
2021/09/03 09:28:57;;;;;;;;;;;25.80;99.90;;;26.41;100.00;100904.72;5032867;28;19925;-66
2021/09/03 09:31:34;;;;;;;;;;;25.90;99.90;;;26.52;100.00;100902.72;5033088;28;19925;-67
2021/09/03 09:34:13;;;;;;;;;;;26.10;99.90;;;26.44;100.00;100901.94;5033035;28;20024;-67
2021/09/03 09:36:41;;;;;;;;;;;26.20;99.90;;;26.48;100.00;100899.94;5031821;28;19932;-67
2021/09/03 09:39:11;;;;;;;;;;;26.20;99.90;;;26.54;100.00;100903.91;5032700;28;20316;-69
2021/09/03 09:41:39;;;;;;;;;;;26.30;99.90;;;26.63;100.00;100898.75;5032894;28;19925;-67
2021/09/03 09:44:07;;;;;;;;;;;26.50;99.90;;;26.66;100.00;100899.94;5032850;28;19951;-69
2021/09/03 09:46:34;;;;;;;;;;;26.50;99.90;;;26.54;100.00;100909.47;5032124;28;19929;-65
2021/09/03 09:49:11;;;;;;;;;;;26.50;99.90;;;25.98;100.00;100912.91;5032497;28;20323;-68
2021/09/03 09:51:43;;;;;;;;;;;26.40;99.90;;;25.93;100.00;100918.06;5033227;28;20008;-67
2021/09/03 09:54:16;;;;;;;;;;;26.20;99.90;;;26.00;100.00;100915.28;5032851;28;19925;-68
2021/09/03 09:56:47;;;;;;;;;;;26.20;99.90;;;26.04;100.00;100916.09;5031405;28;20027;-66
2021/09/03 09:59:16;;;;;;;;;;;26.20;99.90;;;26.16;100.00;100912.19;5031763;28;19947;-65
2021/09/03 10:01:44;;;;;;;;;;;26.30;99.90;;;26.14;100.00;100915.34;5032921;28;20000;-66
2021/09/03 10:04:13;;;;;;;;;;;26.30;99.90;;;26.14;100.00;100914.53;5032443;28;19929;-69
2021/09/03 10:06:43;;;;;;;;;;;26.30;99.90;;;26.12;100.00;100914.91;5031576;28;20291;-69
2021/09/03 10:09:14;;;;;;;;;;;26.30;99.90;;;26.03;100.00;100903.41;5031793;28;19936;-66
2021/09/03 10:11:44;;;;;;;;;;;26.20;99.90;;;26.00;100.00;100899.47;5032728;28;20032;-69
2021/09/03 10:14:15;;;;;;;;;;;26.20;99.90;;;25.95;100.00;100899.06;5032551;28;19925;-66
2021/09/03 10:16:44;;;;;;;;;;;;;;;25.90;100.00;100896.69;5031879;28;19929;-66
2021/09/03 10:19:13;;;;;;;;;;;26.10;99.90;;;25.90;100.00;100899.44;5032343;28;19929;-66
2021/09/03 10:21:41;;;;;;;;;;;26.00;99.90;;;25.90;100.00;100894.66;5032571;28;19925;-70
2021/09/03 10:24:11;;;;;;;;;;;26.00;99.90;;;25.85;100.00;100897.03;5032452;28;19948;-66
2021/09/03 10:26:43;;;;;;;;;;;26.00;99.90;;;25.88;100.00;100893.47;5031888;28;20016;-67
2021/09/03 10:29:15;;;;;;;;;;;25.90;99.90;;;25.97;100.00;100894.69;5032274;28;19925;-63
2021/09/03 10:32:16;;;;;;;;;;;25.90;99.90;;;26.14;100.00;100889.59;5032370;28;19932;-67
2021/09/03 10:34:55;;;;;;;;;;;26.10;99.90;;;26.27;100.00;100882.50;4951934;29;20357;-67
2021/09/03 10:37:41;;;;;;;;;;;26.20;99.90;;;26.29;100.00;100889.25;5021367;28;19928;-67
2021/09/03 10:40:21;;;;;;;;;;;26.30;99.90;;;26.30;100.00;100892.78;5032261;28;19925;-64
2021/09/03 10:43:02;;;;;;;;;;;26.30;99.90;;;26.32;100.00;100880.16;5032403;28;20360;-66
2021/09/03 10:45:35;;;;;;;;;;;26.30;99.90;;;26.25;100.00;100882.91;5032256;28;20294;-65
2021/09/03 10:48:14;;;;;;;;;;;26.30;99.90;;;26.20;100.00;100888.06;5031729;28;19925;-64
2021/09/03 10:50:53;;;;;;;;;;;26.20;99.90;;;26.27;100.00;100883.28;5032038;28;19932;-67
2021/09/03 10:53:35;;;;;;;;;;;26.30;99.90;;;26.35;100.00;100873.03;5032363;28;19925;-69
2021/09/03 10:56:09;;;;;;;;;;;26.40;99.90;;;26.44;100.00;100876.19;5031979;28;19972;-67
2021/09/03 10:58:44;;;;;;;;;;;26.40;99.90;;;26.52;100.00;100881.34;5031264;28;19935;-67
2021/09/03 11:02:02;;;;;;;;;;;26.50;99.90;;;26.46;100.00;100874.59;5032089;28;20028;-65
2021/09/03 11:04:30;;;;;;;;;;;26.50;99.90;;;26.58;100.00;100862.31;4951994;29;20290;-66
2021/09/03 11:07:08;;;;;;;;;;;26.60;99.90;;;26.71;100.00;100865.47;4950704;29;19933;-69
2021/09/03 11:09:36;;;;;;;;;;;26.80;99.90;;;26.66;100.00;100879.75;5004014;28;20020;-69
2021/09/03 11:12:08;;;;;;;;;;;26.80;99.90;;;26.52;100.00;100870.25;5031979;28;19925;-68
2021/09/03 11:14:39;;;;;;;;;;;26.70;99.90;;;26.46;100.00;100869.06;5032013;28;19995;-69
2021/09/03 11:17:08;;;;;;;;;;;26.70;99.90;;;26.35;100.00;100862.72;5031382;28;19925;-65
2021/09/03 11:19:37;;;;;;;;;;;26.60;99.90;;;26.41;100.00;100868.66;5031897;28;19929;-64
2021/09/03 11:22:09;;;;;;;;;;;26.60;99.90;;;26.36;100.00;100869.03;5034841;28;19933;-63